Saxaren — SKHW — position and weather

sailwx.info

Track history (hours):
 
Tides and Currents Weather Stations Pressure Air Temp Water Temp Dewpoint Dewpoint Depression Visibility Wind Speed Wind Dir Waves Ship Positions

Saxaren

Last reported at 2014-Jul-30 18:31 UTC. Time now 2014-Jul-30 19:13 UTC.
Position N 59°20' E 018°05'.

Length 38 m; draft 1.8 m.

Type: Passenger vessel. MMSI: 265512110.

Date/timePositionNaut miles runAvg speedWind from/ knotsBaromVisibWave heightAir tempDewpointWater temp
2014-Jul-30 18:31N 59°20' E 018°05'0 0.0
2014-Jul-30 17:32N 59°20' E 018°05'4 0.3
2014-Jul-30 07:06N 59°20' E 018°11'4 6.5
2014-Jul-30 06:34N 59°20' E 018°05'0 0.0
2014-Jul-30 05:33N 59°20' E 018°05'0 0.0
2014-Jul-30 04:34N 59°20' E 018°05'0 0.0
2014-Jul-30 03:34N 59°20' E 018°05'0 0.0
2014-Jul-30 02:34N 59°20' E 018°05'0 0.0
2014-Jul-30 01:34N 59°20' E 018°05'0 0.0
2014-Jul-30 00:34N 59°20' E 018°05'0 0.0
2014-Jul-29 23:34N 59°20' E 018°05'0 0.0
2014-Jul-29 22:34N 59°20' E 018°05'0 0.0
2014-Jul-29 21:34N 59°20' E 018°05'0 0.0
2014-Jul-29 20:34N 59°20' E 018°05'0 0.0
2014-Jul-29 19:34N 59°20' E 018°05'0 0.0
2014-Jul-29 18:33N 59°20' E 018°05'0 0.0
2014-Jul-29 17:33N 59°20' E 018°05'4 0.3
2014-Jul-29 07:06N 59°20' E 018°11'4 6.5
2014-Jul-29 06:34N 59°20' E 018°05'0 0.0
2014-Jul-29 05:33N 59°20' E 018°05'0 0.0
2014-Jul-29 04:34N 59°20' E 018°05'0 0.0
2014-Jul-29 03:33N 59°20' E 018°05'0 0.0
2014-Jul-29 02:33N 59°20' E 018°05'0 0.0
2014-Jul-29 01:34N 59°20' E 018°05'0 0.0
2014-Jul-29 00:34N 59°20' E 018°05'0 0.0
2014-Jul-28 23:33N 59°20' E 018°05'0 0.0
2014-Jul-28 22:34N 59°20' E 018°05'0 0.0
2014-Jul-28 21:33N 59°20' E 018°05'0 0.0
2014-Jul-28 20:34N 59°20' E 018°05'0 0.0
2014-Jul-28 19:33N 59°20' E 018°05'0 0.0
2014-Jul-28 18:33N 59°20' E 018°05'0 0.0
2014-Jul-28 17:34N 59°20' E 018°05'3 0.3
2014-Jul-28 07:06N 59°20' E 018°11'3 6.4
2014-Jul-28 06:33N 59°20' E 018°04'4 0.2
2014-Jul-27 15:22N 59°20' E 018°12'4 4.4
2014-Jul-27 14:33N 59°20' E 018°05'3 0.5
2014-Jul-27 07:23N 59°20' E 018°11'3 4.1
2014-Jul-27 06:33N 59°20' E 018°05'0 0.0
2014-Jul-27 05:33N 59°20' E 018°05'0 0.0
2014-Jul-27 04:34N 59°20' E 018°05'0 0.0
2014-Jul-27 03:34N 59°20' E 018°05'0 0.0
2014-Jul-27 02:33N 59°20' E 018°05'0 0.0
2014-Jul-27 01:34N 59°20' E 018°05'0 0.0
2014-Jul-27 00:33N 59°20' E 018°05'0 0.0
2014-Jul-26 23:33N 59°20' E 018°05'0 0.0
2014-Jul-26 22:34N 59°20' E 018°05'0 0.0
2014-Jul-26 21:33N 59°20' E 018°05'0 0.0
2014-Jul-26 20:34N 59°20' E 018°05'0 0.0
2014-Jul-26 19:33N 59°20' E 018°05'3 2.6
2014-Jul-26 18:33N 59°19' E 018°10'2 0.2
2014-Jul-26 11:24N 59°20' E 018°12'4 4.5
2014-Jul-26 10:33N 59°20' E 018°05'0 0.0
2014-Jul-26 09:33N 59°20' E 018°05'1 0.1
2014-Jul-25 16:07N 59°19' E 018°06'1 0.6
2014-Jul-25 14:32N 59°20' E 018°05'0 0.0
2014-Jul-25 03:12N 59°20' E 018°05'0 0.0
2014-Jul-25 02:15N 59°20' E 018°04'0 0.0
2014-Jul-25 01:18N 59°20' E 018°04'0 0.0
2014-Jul-24 17:17N 59°20' E 018°04'4 0.3
2014-Jul-24 07:07N 59°20' E 018°11'4 2.3
2014-Jul-24 05:33N 59°20' E 018°05'0 0.0
2014-Jul-23 17:20N 59°20' E 018°05'4 0.4
2014-Jul-23 07:09N 59°20' E 018°13'4 6.4
2014-Jul-23 06:28N 59°20' E 018°05'0 0.0
2014-Jul-23 05:33N 59°20' E 018°05'0 0.0
2014-Jul-23 04:33N 59°20' E 018°05'0 0.0
2014-Jul-23 03:33N 59°20' E 018°05'0 0.0
2014-Jul-23 02:33N 59°20' E 018°05'0 0.0
2014-Jul-23 01:33N 59°20' E 018°05'0 0.0
2014-Jul-23 00:33N 59°20' E 018°05'0 0.0
2014-Jul-22 23:33N 59°20' E 018°05'0 0.0
2014-Jul-22 22:33N 59°20' E 018°05'0 0.0
2014-Jul-22 21:33N 59°20' E 018°05'0 0.0
2014-Jul-22 20:33N 59°20' E 018°05'0 0.0
2014-Jul-22 19:33N 59°20' E 018°05'0 0.0
2014-Jul-22 18:33N 59°20' E 018°05'0 0.0
2014-Jul-22 17:33N 59°20' E 018°05'0 0.0
2014-Jul-21 19:06N 59°20' E 018°05'0 0.0
2014-Jul-21 18:33N 59°20' E 018°05'0 0.0
2014-Jul-21 17:33N 59°20' E 018°05'0 0.0
2014-Jul-21 06:23N 59°20' E 018°05'  
Track history (hours):
 
Tides and Currents Weather Stations Pressure Air Temp Water Temp Dewpoint Dewpoint Depression Visibility Wind Speed Wind Dir Waves Ship Positions

Saxaren

Last reported at 2014-Jul-30 18:31 UTC. Time now 2014-Jul-30 19:13 UTC.
Position N 59°20' E 018°05'.

Length 38 m; draft 1.8 m.

Type: Passenger vessel. MMSI: 265512110.

Date/timePositionNaut miles runAvg speedWind from/ knotsBaromVisibWave heightAir tempDewpointWater temp
2014-Jul-30 18:31N 59°20' E 018°05'0 0.0
2014-Jul-30 17:32N 59°20' E 018°05'4 0.3
2014-Jul-30 07:06N 59°20' E 018°11'4 6.5
2014-Jul-30 06:34N 59°20' E 018°05'0 0.0
2014-Jul-30 05:33N 59°20' E 018°05'0 0.0
2014-Jul-30 04:34N 59°20' E 018°05'0 0.0
2014-Jul-30 03:34N 59°20' E 018°05'0 0.0
2014-Jul-30 02:34N 59°20' E 018°05'0 0.0
2014-Jul-30 01:34N 59°20' E 018°05'0 0.0
2014-Jul-30 00:34N 59°20' E 018°05'0 0.0
2014-Jul-29 23:34N 59°20' E 018°05'0 0.0
2014-Jul-29 22:34N 59°20' E 018°05'0 0.0
2014-Jul-29 21:34N 59°20' E 018°05'0 0.0
2014-Jul-29 20:34N 59°20' E 018°05'0 0.0
2014-Jul-29 19:34N 59°20' E 018°05'0 0.0
2014-Jul-29 18:33N 59°20' E 018°05'0 0.0
2014-Jul-29 17:33N 59°20' E 018°05'4 0.3
2014-Jul-29 07:06N 59°20' E 018°11'4 6.5
2014-Jul-29 06:34N 59°20' E 018°05'0 0.0
2014-Jul-29 05:33N 59°20' E 018°05'0 0.0
2014-Jul-29 04:34N 59°20' E 018°05'0 0.0
2014-Jul-29 03:33N 59°20' E 018°05'0 0.0
2014-Jul-29 02:33N 59°20' E 018°05'0 0.0
2014-Jul-29 01:34N 59°20' E 018°05'0 0.0
2014-Jul-29 00:34N 59°20' E 018°05'0 0.0
2014-Jul-28 23:33N 59°20' E 018°05'0 0.0
2014-Jul-28 22:34N 59°20' E 018°05'0 0.0
2014-Jul-28 21:33N 59°20' E 018°05'0 0.0
2014-Jul-28 20:34N 59°20' E 018°05'0 0.0
2014-Jul-28 19:33N 59°20' E 018°05'0 0.0
2014-Jul-28 18:33N 59°20' E 018°05'0 0.0
2014-Jul-28 17:34N 59°20' E 018°05'3 0.3
2014-Jul-28 07:06N 59°20' E 018°11'3 6.4
2014-Jul-28 06:33N 59°20' E 018°04'4 0.2
2014-Jul-27 15:22N 59°20' E 018°12'4 4.4
2014-Jul-27 14:33N 59°20' E 018°05'3 0.5
2014-Jul-27 07:23N 59°20' E 018°11'3 4.1
2014-Jul-27 06:33N 59°20' E 018°05'0 0.0
2014-Jul-27 05:33N 59°20' E 018°05'0 0.0
2014-Jul-27 04:34N 59°20' E 018°05'0 0.0
2014-Jul-27 03:34N 59°20' E 018°05'0 0.0
2014-Jul-27 02:33N 59°20' E 018°05'0 0.0
2014-Jul-27 01:34N 59°20' E 018°05'0 0.0
2014-Jul-27 00:33N 59°20' E 018°05'0 0.0
2014-Jul-26 23:33N 59°20' E 018°05'0 0.0
2014-Jul-26 22:34N 59°20' E 018°05'0 0.0
2014-Jul-26 21:33N 59°20' E 018°05'0 0.0
2014-Jul-26 20:34N 59°20' E 018°05'0 0.0
2014-Jul-26 19:33N 59°20' E 018°05'3 2.6
2014-Jul-26 18:33N 59°19' E 018°10'2 0.2
2014-Jul-26 11:24N 59°20' E 018°12'4 4.5
2014-Jul-26 10:33N 59°20' E 018°05'0 0.0
2014-Jul-26 09:33N 59°20' E 018°05'1 0.1
2014-Jul-25 16:07N 59°19' E 018°06'1 0.6
2014-Jul-25 14:32N 59°20' E 018°05'0 0.0
2014-Jul-25 03:12N 59°20' E 018°05'0 0.0
2014-Jul-25 02:15N 59°20' E 018°04'0 0.0
2014-Jul-25 01:18N 59°20' E 018°04'0 0.0
2014-Jul-24 17:17N 59°20' E 018°04'4 0.3
2014-Jul-24 07:07N 59°20' E 018°11'4 2.3
2014-Jul-24 05:33N 59°20' E 018°05'0 0.0
2014-Jul-23 17:20N 59°20' E 018°05'4 0.4
2014-Jul-23 07:09N 59°20' E 018°13'4 6.4
2014-Jul-23 06:28N 59°20' E 018°05'0 0.0
2014-Jul-23 05:33N 59°20' E 018°05'0 0.0
2014-Jul-23 04:33N 59°20' E 018°05'0 0.0
2014-Jul-23 03:33N 59°20' E 018°05'0 0.0
2014-Jul-23 02:33N 59°20' E 018°05'0 0.0
2014-Jul-23 01:33N 59°20' E 018°05'0 0.0
2014-Jul-23 00:33N 59°20' E 018°05'0 0.0
2014-Jul-22 23:33N 59°20' E 018°05'0 0.0
2014-Jul-22 22:33N 59°20' E 018°05'0 0.0
2014-Jul-22 21:33N 59°20' E 018°05'0 0.0
2014-Jul-22 20:33N 59°20' E 018°05'0 0.0
2014-Jul-22 19:33N 59°20' E 018°05'0 0.0
2014-Jul-22 18:33N 59°20' E 018°05'0 0.0
2014-Jul-22 17:33N 59°20' E 018°05'0 0.0
2014-Jul-21 19:06N 59°20' E 018°05'0 0.0
2014-Jul-21 18:33N 59°20' E 018°05'0 0.0
2014-Jul-21 17:33N 59°20' E 018°05'0 0.0
2014-Jul-21 06:23N 59°20' E 018°05'  

Dump ship's entire track history